Last 24 Hours

Canyon Lodge - 8,343ft

5 Minute Data | America/Los_Angeles
as of 9/5/26 11:24 PM PDT
Date & Time Temp (°F) RH (%) Dew Pt (°F) Wet Bulb (°F) Wind Dir (°) Wind Spd (mph) Wind Gust (mph) Wind Gst Dir (°)
9/5/26 - 2320 49.5 42 27.3 40.2 WSW | 237 6.9 15.4 WSW | 239
9/5/26 - 2315 49.2 42 27.0 40.0 SW | 235 9.3 19.6 SW | 227
9/5/26 - 2310 48.8 41 26.4 39.6 SW | 234 7.0 19.8 SSW | 203
9/5/26 - 2305 49.0 41 26.5 39.8 WSW | 243 8.7 19.2 SW | 227
9/5/26 - 2300 49.2 42 26.9 39.9 WSW | 242 10.7 26.0 WSW | 241
9/5/26 - 2255 49.2 41 26.9 40.0 SW | 233 9.3 19.8 WSW | 240
9/5/26 - 2250 49.3 41 26.7 39.9 WSW | 242 9.5 20.4 WSW | 251
9/5/26 - 2245 49.2 41 26.6 39.9 WSW | 245 10.3 25.6 WSW | 238
9/5/26 - 2240 49.2 40 26.1 39.7 SW | 233 8.0 19.8 WSW | 245
9/5/26 - 2235 49.2 40 25.8 39.6 WSW | 238 8.4 26.7 WSW | 254
9/5/26 - 2230 49.1 39 25.5 39.5 WSW | 244 10.4 23.1 WSW | 241
9/5/26 - 2225 49.2 40 25.9 39.7 WSW | 244 10.2 24.6 SW | 225
9/5/26 - 2220 49.2 40 26.1 39.7 WSW | 238 8.9 21.4 WSW | 256
9/5/26 - 2215 49.1 41 26.2 39.7 SW | 236 8.8 24.4 WSW | 252
9/5/26 - 2210 49.1 40 26.0 39.6 SW | 233 8.1 21.1 SW | 236
9/5/26 - 2205 49.1 40 25.9 39.6 SW | 230 7.9 22.0 NW | 305
9/5/26 - 2200 49.1 40 26.0 39.6 SW | 227 7.1 19.8 S | 189
9/5/26 - 2155 49.3 41 26.3 39.8 SW | 233 8.4 22.1 WSW | 238
9/5/26 - 2150 49.0 40 26.0 39.6 SW | 228 5.6 20.1 WSW | 258
9/5/26 - 2145 49.0 40 25.9 39.6 SW | 223 7.6 21.2 WNW | 286
9/5/26 - 2140 49.0 40 26.0 39.6 SW | 234 7.2 17.3 SW | 221
9/5/26 - 2135 48.9 40 25.8 39.5 SW | 226 5.9 15.3 WSW | 238
9/5/26 - 2130 49.2 41 26.3 39.8 SW | 233 7.9 20.9 WSW | 246
9/5/26 - 2125 49.1 40 26.1 39.7 WSW | 241 8.0 17.5 WSW | 243
9/5/26 - 2120 49.0 41 26.1 39.6 WSW | 242 9.6 18.2 WSW | 246
9/5/26 - 2115 48.9 41 26.0 39.5 WSW | 239 9.2 19.0 W | 276
9/5/26 - 2110 48.7 41 25.8 39.3 WSW | 241 8.3 17.4 WSW | 250
9/5/26 - 2105 48.9 41 26.1 39.6 WSW | 240 8.2 18.7 W | 262
9/5/26 - 2100 48.4 40 25.1 39.0 SW | 224 6.9 13.5 SW | 226
9/5/26 - 2055 48.4 40 25.1 39.0 SW | 225 5.0 11.0 SSW | 194
9/5/26 - 2050 48.3 39 24.8 38.9 SSW | 194 5.9 12.2 S | 182
9/5/26 - 2045 48.4 39 24.8 38.9 SSW | 211 5.6 12.5 S | 187
9/5/26 - 2040 48.5 39 25.0 39.0 SW | 217 5.7 13.0 SW | 228
9/5/26 - 2035 48.7 40 25.2 39.2 SW | 225 6.1 17.2 WSW | 245
9/5/26 - 2030 48.8 39 25.2 39.2 SW | 226 5.4 17.9 WSW | 241
9/5/26 - 2025 48.7 40 25.2 39.2 WSW | 238 6.0 15.7 SW | 235
9/5/26 - 2020 48.8 39 25.1 39.2 SW | 217 5.4 15.1 WNW | 299
9/5/26 - 2015 49.1 39 25.5 39.5 WSW | 237 7.4 19.9 WSW | 243
9/5/26 - 2010 49.4 39 25.7 39.7 SW | 230 7.9 18.5 SW | 234
9/5/26 - 2005 49.2 39 25.6 39.6 SW | 222 7.6 18.8 W | 261
9/5/26 - 2000 49.5 40 26.1 39.9 SW | 235 7.6 17.4 WSW | 250
9/5/26 - 1955 49.4 40 26.0 39.8 SW | 230 4.7 16.3 WSW | 257
9/5/26 - 1950 49.5 40 26.4 40.0 SW | 223 6.0 17.7 SW | 222
9/5/26 - 1945 49.7 40 26.4 40.1 SW | 215 6.4 12.9 SSW | 192
9/5/26 - 1940 49.8 40 26.7 40.2 SW | 218 5.8 21.1 WSW | 249
9/5/26 - 1935 50.2 41 27.5 40.6 SW | 220 5.9 14.4 W | 260
9/5/26 - 1930 50.2 41 27.1 40.5 SSW | 213 7.6 16.6 S | 184
9/5/26 - 1925 50.3 40 26.8 40.5 SW | 233 8.1 20.7 W | 262
9/5/26 - 1920 50.7 39 26.8 40.7 SW | 230 8.9 17.7 WSW | 239
9/5/26 - 1915 50.8 39 26.5 40.6 SW | 222 6.5 15.3 SW | 216
9/5/26 - 1910 50.7 38 25.9 40.4 SW | 224 6.2 17.2 W | 275
9/5/26 - 1905 51.0 38 26.4 40.7 SW | 229 7.1 16.4 WSW | 255
9/5/26 - 1900 51.0 38 26.4 40.7 WSW | 237 7.0 16.5 WSW | 249
9/5/26 - 1855 51.1 38 26.5 40.8 SW | 231 8.8 20.2 SW | 217
9/5/26 - 1850 51.5 39 27.2 41.2 WSW | 242 8.8 21.8 WSW | 247
9/5/26 - 1845 51.4 39 27.6 41.2 WSW | 241 9.3 19.2 WSW | 240
9/5/26 - 1840 51.4 38 26.8 41.0 SSW | 210 5.2 14.1 S | 178
9/5/26 - 1835 51.6 39 27.5 41.3 SW | 231 6.6 14.4 WSW | 256
9/5/26 - 1830 51.6 40 27.9 41.5 SW | 219 7.2 18.2 SW | 218
9/5/26 - 1825 51.5 38 26.6 41.0 SSW | 206 8.4 16.1 W | 267
9/5/26 - 1820 51.7 38 26.9 41.2 SW | 220 9.4 18.9 WSW | 242
9/5/26 - 1815 51.8 38 27.1 41.3 SW | 227 5.4 18.1 WSW | 246
9/5/26 - 1810 52.0 38 27.2 41.4 SW | 218 7.9 17.4 WSW | 244
9/5/26 - 1805 52.3 39 27.8 41.8 SW | 228 9.3 18.5 SW | 217
9/5/26 - 1800 52.2 39 28.0 41.8 SW | 222 6.3 20.0 WSW | 253
9/5/26 - 1755 52.3 39 27.9 41.8 SSW | 206 6.5 14.1 SSW | 204
9/5/26 - 1750 52.4 39 28.1 41.9 SW | 226 7.4 24.0 WSW | 256
9/5/26 - 1745 52.6 39 28.2 42.1 WSW | 238 7.3 20.4 WSW | 246
9/5/26 - 1740 52.8 39 28.3 42.2 SW | 232 8.2 19.0 SSW | 212
9/5/26 - 1735 52.8 38 28.1 42.1 SW | 215 8.3 23.9 WSW | 243
9/5/26 - 1730 52.5 39 28.4 42.1 SW | 224 9.7 22.0 WSW | 241
9/5/26 - 1725 52.5 39 28.3 42.0 SW | 229 8.5 20.7 S | 174
9/5/26 - 1720 52.9 39 28.8 42.4 SW | 232 7.5 17.5 WSW | 243
9/5/26 - 1715 52.9 39 28.7 42.4 SW | 233 7.4 18.9 WSW | 256
9/5/26 - 1710 53.1 38 28.5 42.4 SSW | 212 8.4 23.5 W | 267
9/5/26 - 1705 53.6 38 28.8 42.7 SW | 234 6.1 15.3 SSW | 211
9/5/26 - 1700 53.2 38 28.4 42.4 SW | 225 9.9 26.6 SSE | 165
9/5/26 - 1655 53.7 38 28.8 42.8 SW | 231 7.2 29.8 WSW | 243
9/5/26 - 1650 53.7 38 29.0 42.8 WSW | 242 7.0 17.8 SW | 233
9/5/26 - 1645 53.6 38 28.8 42.7 SW | 235 9.3 25.1 W | 265
9/5/26 - 1640 54.1 38 29.3 43.1 SW | 219 8.2 22.6 S | 191
9/5/26 - 1635 54.0 39 29.5 43.1 SW | 234 8.0 22.0 WSW | 242
9/5/26 - 1630 54.4 40 30.4 43.6 SW | 220 8.7 24.3 W | 281
9/5/26 - 1625 54.1 41 30.9 43.6 SW | 233 8.4 23.2 W | 262
9/5/26 - 1620 54.5 41 31.2 44.0 SW | 231 8.1 24.2 SW | 228
9/5/26 - 1615 55.0 41 32.0 44.5 SW | 225 8.1 18.4 SSW | 198
9/5/26 - 1610 55.7 40 32.0 44.8 SSW | 208 7.0 20.9 SSW | 201
9/5/26 - 1605 55.2 40 31.3 44.3 SSW | 209 8.1 19.0 SW | 226
9/5/26 - 1600 55.9 39 31.3 44.6 SW | 222 6.1 17.0 SSW | 198
9/5/26 - 1555 57.0 38 31.8 45.3 SSW | 205 4.9 13.7 WSW | 254
9/5/26 - 1550 56.2 38 31.1 44.7 SW | 229 6.4 23.5 SW | 230
9/5/26 - 1545 56.5 39 31.6 45.0 SSW | 208 7.2 26.3 SW | 230
9/5/26 - 1540 56.8 38 31.7 45.1 SSW | 212 7.0 17.4 W | 260
9/5/26 - 1535 57.0 39 32.0 45.4 S | 185 9.0 19.6 SSW | 197
9/5/26 - 1530 57.2 39 32.2 45.5 SSW | 200 8.9 27.8 S | 181
9/5/26 - 1525 57.2 39 32.3 45.6 S | 185 8.5 28.2 SSE | 147
9/5/26 - 1520 57.7 39 33.2 46.1 SSW | 192 6.3 13.4 SSE | 156
9/5/26 - 1515 57.5 40 33.2 46.0 SSW | 203 5.3 15.8 S | 185
9/5/26 - 1510 57.1 41 33.7 46.0 SW | 229 8.0 22.8 WSW | 238
9/5/26 - 1505 57.5 40 33.3 46.0 SSW | 206 6.5 25.8 SSE | 155
9/5/26 - 1500 57.4 39 32.5 45.7 SSW | 206 6.7 15.5 S | 173
9/5/26 - 1455 57.4 39 32.6 45.7 SW | 219 7.3 18.0 SW | 222
9/5/26 - 1450 57.7 39 33.1 46.0 SSW | 207 7.4 16.6 SSW | 192
9/5/26 - 1445 57.5 39 33.0 45.9 WSW | 246 4.6 14.3 W | 268
9/5/26 - 1440 58.2 39 33.7 46.5 SW | 227 4.4 16.7 W | 266
9/5/26 - 1435 57.5 40 33.3 46.0 SW | 221 6.4 18.0 ESE | 119
9/5/26 - 1430 58.3 40 34.3 46.7 SW | 216 5.6 14.4 WSW | 240
9/5/26 - 1425 57.7 41 34.4 46.5 WSW | 239 5.2 15.0 W | 259
9/5/26 - 1420 58.3 42 35.2 47.1 SW | 226 4.9 12.1 SW | 229
9/5/26 - 1415 58.4 42 35.7 47.3 SSW | 205 4.6 13.6 W | 266
9/5/26 - 1410 58.4 42 35.5 47.2 SW | 225 4.1 12.2 WSW | 251
9/5/26 - 1405 58.9 42 35.7 47.5 SSW | 203 5.3 15.3 SE | 141
9/5/26 - 1400 59.5 42 36.4 48.0 SW | 220 4.1 16.1 WNW | 290
9/5/26 - 1355 58.5 43 36.1 47.5 SW | 227 4.1 15.2 W | 263
9/5/26 - 1350 58.3 42 35.5 47.2 SSW | 205 6.1 16.8 SSW | 198
9/5/26 - 1345 58.9 43 36.6 47.9 SSW | 208 6.7 22.5 S | 170
9/5/26 - 1340 58.8 43 36.1 47.6 SSW | 193 6.4 21.5 ESE | 123
9/5/26 - 1335 58.5 43 35.9 47.5 SW | 220 4.6 15.0 SSW | 205
9/5/26 - 1330 58.2 42 35.3 47.1 SE | 146 4.2 16.2 SSW | 202
9/5/26 - 1325 59.2 42 36.2 47.8 S | 176 1.9 12.0 SSW | 193
9/5/26 - 1320 57.5 42 34.4 46.4 SW | 234 6.0 16.3 S | 174
9/5/26 - 1315 58.4 41 34.9 47.0 SW | 228 5.0 18.5 W | 266
9/5/26 - 1310 57.9 41 34.6 46.7 SSW | 193 4.3 17.4 SW | 214
9/5/26 - 1305 57.8 42 34.9 46.8 SW | 235 5.0 16.5 W | 264
9/5/26 - 1300 57.6 41 34.1 46.4 SSW | 192 3.6 12.2 SW | 233
9/5/26 - 1255 58.2 41 34.9 46.9 E | 79 3.7 16.8 SSE | 154
9/5/26 - 1250 58.3 42 35.2 47.1 W | 281 3.8 11.0 SW | 235
9/5/26 - 1245 57.8 41 34.3 46.5 SE | 134 4.2 15.9 ESE | 109
9/5/26 - 1240 57.2 41 33.8 46.1 WSW | 238 5.0 16.2 WNW | 282
9/5/26 - 1235 58.4 41 34.9 47.0 SW | 221 5.4 16.7 SSW | 198
9/5/26 - 1230 57.4 41 34.0 46.2 SSW | 196 7.8 19.0 S | 182
9/5/26 - 1225 57.7 41 34.4 46.5 SW | 216 5.1 16.9 SW | 235
9/5/26 - 1220 58.1 42 34.8 46.8 SW | 233 4.9 16.7 WSW | 241
9/5/26 - 1215 58.3 42 35.1 47.0 SW | 225 6.7 18.2 SW | 227
9/5/26 - 1210 57.3 42 34.3 46.4 SW | 228 8.3 17.7 SSW | 208
9/5/26 - 1205 57.5 42 34.7 46.6 SSW | 200 5.8 19.0 S | 174
9/5/26 - 1200 57.8 43 35.2 46.9 SW | 231 5.8 17.6 SSW | 194
9/5/26 - 1155 57.7 43 35.3 46.9 WSW | 241 7.7 16.4 S | 173
9/5/26 - 1150 58.2 43 35.8 47.3 SW | 228 5.3 14.2 SSW | 195
9/5/26 - 1145 58.3 44 36.3 47.5 WSW | 238 4.8 22.4 WSW | 255
9/5/26 - 1140 57.6 43 35.3 46.8 SW | 230 4.6 19.1 WSW | 256
9/5/26 - 1135 57.4 42 34.3 46.3 SW | 236 6.2 14.9 W | 260
9/5/26 - 1130 57.6 42 34.5 46.5 SW | 219 4.0 9.5 SW | 223
9/5/26 - 1125 57.1 42 34.1 46.2 SW | 225 6.1 17.3 SSW | 197
9/5/26 - 1120 58.5 42 35.5 47.3 SSW | 210 4.4 11.9 S | 169
9/5/26 - 1115 58.4 42 35.6 47.3 WSW | 247 3.7 12.9 SW | 227
9/5/26 - 1110 58.1 42 35.4 47.1 SW | 236 5.6 15.1 WSW | 256
9/5/26 - 1105 57.9 43 35.8 47.2 SW | 230 3.4 16.9 WSW | 256
9/5/26 - 1100 58.3 44 36.2 47.5 SW | 224 3.3 11.9 S | 189
9/5/26 - 1055 57.7 43 35.7 47.0 SW | 232 4.6 13.8 W | 273
9/5/26 - 1050 57.1 44 35.2 46.6 WSW | 239 3.4 10.6 WSW | 247
9/5/26 - 1045 56.4 44 34.5 46.0 SW | 234 5.9 13.9 SSW | 199
9/5/26 - 1040 56.3 44 34.9 46.1 WSW | 250 4.1 14.7 W | 269
9/5/26 - 1035 55.7 45 34.9 45.9 WSW | 246 6.0 12.2 WSW | 237
9/5/26 - 1030 55.9 45 34.9 46.0 SW | 233 3.9 12.4 SSW | 205
9/5/26 - 1025 56.7 44 35.3 46.4 WSW | 247 2.4 10.6 WSW | 250
9/5/26 - 1020 55.7 44 34.4 45.6 SW | 227 2.9 6.9 W | 261
9/5/26 - 1015 55.4 44 33.7 45.2 SW | 219 4.1 10.4 WSW | 253
9/5/26 - 1010 55.2 43 32.9 44.9 SW | 227 4.0 10.8 WSW | 254
9/5/26 - 1005 54.8 43 32.7 44.6 SW | 222 5.1 13.7 SSW | 199
9/5/26 - 1000 55.7 43 33.7 45.4 SW | 226 2.9 7.8 S | 182
9/5/26 - 0955 56.2 43 34.2 45.8 SW | 222 2.7 10.5 WSW | 248
9/5/26 - 0950 54.6 44 33.0 44.7 WSW | 241 1.6 7.7 W | 260
9/5/26 - 0945 53.6 43 31.8 43.7 SW | 229 4.9 11.7 SSW | 199
9/5/26 - 0940 53.6 44 32.0 43.8 W | 260 2.9 11.9 SW | 217
9/5/26 - 0935 53.1 43 31.2 43.3 SSW | 204 4.8 10.4 W | 268
9/5/26 - 0930 53.0 43 31.4 43.3 SW | 227 2.9 11.9 WSW | 251
9/5/26 - 0925 52.6 44 31.3 43.1 SW | 234 3.5 11.2 SW | 234
9/5/26 - 0920 52.9 44 31.8 43.4 SW | 231 2.9 7.7 S | 191
9/5/26 - 0915 52.5 44 31.4 43.1 WSW | 238 3.2 11.4 SW | 216
9/5/26 - 0910 52.7 44 31.5 43.2 SSW | 212 2.7 8.0 SSW | 208
9/5/26 - 0905 52.3 44 31.2 42.9 SSW | 207 3.3 7.9 SW | 216
9/5/26 - 0900 51.7 45 30.9 42.5 WSW | 240 4.5 12.3 WSW | 253
9/5/26 - 0855 52.0 45 31.2 42.8 SSW | 213 3.8 9.8 SW | 224
9/5/26 - 0850 52.2 44 31.1 42.8 SW | 222 2.2 8.8 W | 262
9/5/26 - 0845 52.0 44 30.9 42.6 SW | 223 2.5 8.8 SSE | 147
9/5/26 - 0840 51.5 44 30.2 42.2 SSW | 193 3.5 8.6 SSW | 192
9/5/26 - 0835 51.1 45 30.4 42.1 SW | 219 5.1 12.2 SW | 234
9/5/26 - 0830 51.5 45 30.8 42.4 SW | 235 3.0 9.0 S | 184
9/5/26 - 0825 50.4 45 29.8 41.5 SW | 235 5.2 12.5 SW | 234
9/5/26 - 0820 50.5 45 29.8 41.6 SW | 230 3.6 9.1 WSW | 252
9/5/26 - 0815 50.3 45 29.7 41.4 WSW | 240 4.2 15.3 SW | 235
9/5/26 - 0810 50.2 45 29.9 41.4 SW | 220 5.6 11.2 SSE | 148
9/5/26 - 0805 49.8 45 29.4 41.1 SSW | 207 4.9 12.2 SW | 216
9/5/26 - 0800 49.7 45 29.4 41.0 SW | 217 6.1 16.7 SW | 226
9/5/26 - 0755 49.4 45 29.2 40.8 SW | 225 5.7 15.6 SW | 214
9/5/26 - 0750 49.1 46 29.0 40.6 SW | 231 6.4 15.0 SSW | 203
9/5/26 - 0745 49.1 45 28.9 40.6 SW | 233 5.9 16.8 WSW | 254
9/5/26 - 0740 49.1 45 28.9 40.6 SW | 218 5.7 16.6 SSW | 193
9/5/26 - 0735 48.9 45 28.6 40.4 SW | 218 4.1 14.6 SSW | 204
9/5/26 - 0730 48.8 46 28.7 40.3 SW | 229 4.1 14.5 SW | 221
9/5/26 - 0725 48.4 45 28.3 40.0 WSW | 240 3.8 15.4 W | 274
9/5/26 - 0720 48.5 45 28.3 40.1 SW | 228 4.4 11.7 SW | 235
9/5/26 - 0715 48.4 45 28.2 40.0 SW | 230 5.0 11.8 W | 263
9/5/26 - 0710 48.0 45 27.6 39.6 SW | 234 5.0 14.1 W | 266
9/5/26 - 0705 48.0 45 27.7 39.6 SW | 235 3.7 12.1 WSW | 255
9/5/26 - 0700 47.7 45 27.5 39.4 WSW | 250 4.7 13.8 WSW | 244
9/5/26 - 0655 47.5 45 27.2 39.2 SW | 226 4.5 13.8 WSW | 249
9/5/26 - 0650 47.2 45 27.0 39.0 WSW | 243 5.6 12.2 W | 269
9/5/26 - 0645 47.0 45 26.8 38.8 SW | 236 3.2 11.0 W | 269
9/5/26 - 0640 46.6 45 26.3 38.4 SW | 224 3.3 11.6 WSW | 253
9/5/26 - 0635 47.0 45 26.8 38.8 SW | 232 5.8 17.3 W | 259
9/5/26 - 0630 47.0 45 26.8 38.8 WSW | 240 5.8 11.3 W | 264
9/5/26 - 0625 47.0 45 26.8 38.8 SW | 226 3.2 9.0 WSW | 238
9/5/26 - 0620 46.9 45 26.5 38.6 SW | 233 4.5 13.4 WSW | 251
9/5/26 - 0615 47.2 45 26.8 38.9 WSW | 240 3.8 11.5 W | 264
9/5/26 - 0610 46.7 44 26.0 38.4 SW | 229 5.2 13.6 WSW | 248
9/5/26 - 0605 46.5 44 26.0 38.3 SSW | 210 4.0 12.5 WSW | 242
9/5/26 - 0600 46.8 44 26.2 38.5 WSW | 237 3.2 10.4 W | 261
9/5/26 - 0555 47.2 44 26.6 38.8 SW | 230 5.5 14.2 WSW | 245
9/5/26 - 0550 47.0 45 26.5 38.7 SW | 234 3.0 11.8 WSW | 254
9/5/26 - 0545 47.5 44 26.7 39.0 SW | 231 4.9 14.9 W | 267
9/5/26 - 0540 47.4 45 27.0 39.0 SW | 232 4.0 8.8 SW | 226
9/5/26 - 0535 47.5 45 27.0 39.1 SW | 234 3.3 11.3 SW | 226
9/5/26 - 0530 47.5 44 26.9 39.1 SW | 227 3.4 10.8 W | 269
9/5/26 - 0525 47.7 45 27.4 39.4 WSW | 245 4.9 15.1 WSW | 245
9/5/26 - 0520 47.8 44 27.3 39.4 WSW | 242 4.3 10.7 SW | 218
9/5/26 - 0515 48.2 44 27.6 39.6 WSW | 245 4.3 10.9 SW | 233
9/5/26 - 0510 48.4 44 27.6 39.8 SW | 225 6.2 14.1 WSW | 257
9/5/26 - 0505 48.1 44 27.3 39.5 WSW | 241 5.5 15.9 WSW | 255
9/5/26 - 0500 48.4 44 27.8 39.8 WSW | 248 4.7 14.7 W | 264
9/5/26 - 0455 48.2 44 27.6 39.7 WSW | 241 7.1 15.9 W | 259
9/5/26 - 0450 48.1 44 27.2 39.5 SW | 233 4.5 15.9 WSW | 255
9/5/26 - 0445 48.0 44 27.1 39.4 SW | 220 4.4 15.1 WSW | 250
9/5/26 - 0440 48.3 44 27.4 39.7 WSW | 247 6.0 14.7 WNW | 292
9/5/26 - 0435 48.3 44 27.7 39.7 SW | 219 4.1 12.0 WSW | 242
9/5/26 - 0430 48.3 45 27.8 39.8 SW | 236 4.7 9.5 SW | 231
9/5/26 - 0425 48.7 45 28.0 40.0 SW | 235 5.6 13.7 WSW | 246
9/5/26 - 0420 48.4 44 27.6 39.8 SW | 233 4.0 10.6 SW | 217
9/5/26 - 0415 49.0 44 28.3 40.3 SW | 229 5.4 13.7 SW | 214
9/5/26 - 0410 48.8 44 28.0 40.1 SW | 230 6.2 14.4 SW | 231
9/5/26 - 0405 49.1 44 28.2 40.3 SW | 225 5.8 16.8 SSW | 197
9/5/26 - 0400 49.0 44 28.1 40.2 SW | 235 6.1 12.6 W | 274
9/5/26 - 0355 48.9 44 27.8 40.1 SW | 231 6.2 14.6 WSW | 253
9/5/26 - 0350 48.8 44 27.7 40.0 SW | 220 4.9 18.1 W | 270
9/5/26 - 0345 48.2 44 27.1 39.5 SW | 230 3.9 10.6 SSE | 168
9/5/26 - 0340 48.1 44 27.1 39.4 SW | 235 5.2 13.6 SW | 221
9/5/26 - 0335 48.2 44 27.2 39.5 WSW | 238 5.5 14.9 W | 259
9/5/26 - 0330 48.1 44 27.4 39.5 SW | 232 5.3 12.2 WSW | 248
9/5/26 - 0325 48.1 44 27.4 39.5 SW | 230 6.4 14.6 W | 278
9/5/26 - 0320 48.2 44 27.4 39.6 SW | 229 6.3 15.0 WSW | 243
9/5/26 - 0315 48.0 44 27.1 39.4 SW | 220 3.6 10.7 WNW | 286
9/5/26 - 0310 47.8 44 26.8 39.2 SSW | 209 5.3 9.9 WSW | 250
9/5/26 - 0305 48.4 44 27.4 39.7 SW | 218 6.7 13.3 SW | 219
9/5/26 - 0300 48.5 43 27.3 39.7 SW | 232 5.1 11.7 W | 267
9/5/26 - 0255 48.2 43 26.9 39.4 SSW | 209 5.4 12.5 WSW | 254
9/5/26 - 0250 47.8 44 26.8 39.2 SW | 230 5.8 13.3 SW | 218
9/5/26 - 0245 47.7 44 26.7 39.2 SW | 231 5.2 10.8 WSW | 244
9/5/26 - 0240 47.7 44 26.7 39.1 SW | 214 4.9 10.3 SSW | 203
9/5/26 - 0235 48.3 44 27.4 39.7 WSW | 242 6.4 13.8 WSW | 240
9/5/26 - 0230 47.6 43 26.5 39.0 SW | 229 4.8 12.7 WSW | 249
9/5/26 - 0225 47.4 44 26.4 38.8 SW | 218 4.4 13.7 WSW | 251
9/5/26 - 0220 47.6 44 26.6 39.0 SW | 233 5.6 12.2 WSW | 246
9/5/26 - 0215 47.0 44 26.0 38.5 WSW | 245 6.6 15.2 W | 261
9/5/26 - 0210 46.9 43 25.8 38.4 SW | 224 4.6 15.7 W | 270
9/5/26 - 0205 47.0 43 25.8 38.5 SW | 229 5.1 12.2 S | 184
9/5/26 - 0200 47.0 43 25.7 38.5 WSW | 239 5.3 13.5 W | 263
9/5/26 - 0155 46.6 43 25.2 38.0 WSW | 242 4.2 9.8 SSW | 210
9/5/26 - 0150 46.3 43 24.9 37.8 SW | 220 3.8 11.3 SSW | 196
9/5/26 - 0145 46.6 43 25.3 38.1 WSW | 250 5.9 13.5 W | 281
9/5/26 - 0140 46.4 43 25.1 38.0 SW | 224 5.2 12.2 WSW | 254
9/5/26 - 0135 46.0 42 24.4 37.5 SW | 227 4.9 10.4 SSW | 198
9/5/26 - 0130 46.3 43 24.8 37.8 WSW | 245 5.1 13.8 SW | 227
9/5/26 - 0125 45.6 43 24.2 37.2 WSW | 240 5.7 12.8 SW | 220
9/5/26 - 0120 45.4 42 23.8 37.0 SW | 234 4.0 12.6 S | 187
9/5/26 - 0115 44.9 42 23.3 36.6 SW | 214 3.6 12.2 SW | 223
9/5/26 - 0110 45.0 42 23.5 36.8 SW | 232 5.8 15.1 S | 182
9/5/26 - 0105 45.0 42 23.5 36.7 SW | 227 4.7 10.0 SSW | 207
9/5/26 - 0100 45.0 42 23.3 36.7 SW | 231 3.4 14.9 WSW | 250
9/5/26 - 0055 45.3 42 23.3 36.8 SW | 225 3.7 12.0 SW | 236
9/5/26 - 0050 45.0 42 23.1 36.6 SSW | 193 3.7 12.8 S | 169
9/5/26 - 0045 44.9 41 22.8 36.5 SSW | 210 5.3 16.7 W | 261
9/5/26 - 0040 45.0 41 23.0 36.6 SSW | 206 6.2 15.0 WSW | 243
9/5/26 - 0035 45.0 41 22.7 36.5 SW | 214 4.9 13.2 SW | 232
9/5/26 - 0030 45.1 41 22.9 36.6 S | 189 7.1 17.8 S | 170
9/5/26 - 0025 45.3 41 23.1 36.8 SSW | 203 6.4 17.4 S | 178
9/5/26 - 0020 45.3 42 23.4 36.8 SSW | 199 5.3 10.1 SW | 229
9/5/26 - 0015 45.1 42 23.5 36.8 SSW | 198 6.6 13.8 SSW | 202
9/5/26 - 0010 45.3 42 23.5 36.9 SW | 215 5.8 16.6 S | 181
9/5/26 - 0005 45.3 42 23.4 36.9 SW | 225 4.9 15.5 WSW | 244
9/5/26 - 0000 45.4 42 23.4 36.9 SW | 220 6.0 15.3 S | 182
9/4/26 - 2355 45.3 41 23.2 36.8 SSW | 200 6.2 15.2 SSE | 164
9/4/26 - 2350 45.3 41 23.0 36.7 SSW | 210 3.6 13.1 W | 266
9/4/26 - 2345 45.5 41 23.1 36.9 SSW | 212 5.9 13.7 SSW | 195
9/4/26 - 2340 45.4 41 23.1 36.8 SSW | 199 6.2 13.2 S | 186
9/4/26 - 2335 45.6 41 23.2 37.0 SSW | 202 5.1 13.2 SSW | 193
9/4/26 - 2330 45.4 41 23.2 36.8 SSW | 212 4.2 12.0 SSW | 192
9/4/26 - 2325 45.4 41 23.2 36.8 SW | 215 4.8 15.9 SW | 231
9/4/26 - 2320 45.3 41 22.8 36.7 SSW | 211 4.4 14.7 SSW | 193
Max 59.5 46 36.6 48.0 - 10.7 29.8 -
Avg 51.3 42 28.9 41.6 - 5.8 15.6 -
Min 44.9 38 22.7 36.5 - 1.6 6.9 -